Time;durP1;ratioP1;P1;durP2;ratioP2;P2;SDS_P1;SDS_P2;PMS_P1;PMS_P2;Temp;Humidity;BMP_temperature;BMP_pressure;BME280_temperature;BME280_humidity;BME280_pressure;Samples;Min_cycle;Max_cycle;Signal;HPM_P1;HPM_P2
2023/05/27 00:00:17;;;;;;;3.25;1.30;;;22.40;37.20;;;;;;5056568;28;20461;-59
2023/05/27 00:02:43;;;;;;;3.85;1.67;;;22.30;37.20;;;;;;5058548;28;20037;-61
2023/05/27 00:05:09;;;;;;;3.78;1.33;;;22.30;37.20;;;;;;5057173;28;20103;-60
2023/05/27 00:07:35;;;;;;;3.83;1.52;;;22.30;37.20;;;;;;5058633;28;21708;-60
2023/05/27 00:10:01;;;;;;;3.95;1.30;;;22.30;37.20;;;;;;5061069;28;20100;-60
2023/05/27 00:12:28;;;;;;;3.65;1.60;;;22.30;37.20;;;;;;5057304;28;20124;-61
2023/05/27 00:14:54;;;;;;;2.70;1.42;;;22.30;37.30;;;;;;5058596;28;20048;-60
2023/05/27 00:17:20;;;;;;;4.45;1.60;;;22.30;37.30;;;;;;5055313;28;20074;-60
2023/05/27 00:19:49;;;;;;;3.63;1.65;;;22.30;37.30;;;;;;5059454;28;20470;-62
2023/05/27 00:22:15;;;;;;;5.05;1.60;;;22.30;37.30;;;;;;5057083;28;20021;-59
2023/05/27 00:24:41;;;;;;;3.40;1.38;;;22.30;37.30;;;;;;5057523;28;20036;-61
2023/05/27 00:27:09;;;;;;;3.97;1.40;;;22.20;37.30;;;;;;5060377;28;20047;-60
2023/05/27 00:29:36;;;;;;;3.08;1.20;;;22.20;37.30;;;;;;5042804;28;20115;-60
2023/05/27 00:32:03;;;;;;;2.97;1.50;;;22.20;37.30;;;;;;5043522;28;20119;-59
2023/05/27 00:34:31;;;;;;;3.35;1.23;;;22.20;37.30;;;;;;5061615;28;21684;-59
2023/05/27 00:36:57;;;;;;;3.10;1.70;;;22.20;37.30;;;;;;5046010;28;20035;-60
2023/05/27 00:39:23;;;;;;;3.10;1.30;;;22.20;37.30;;;;;;5043793;28;20113;-58
2023/05/27 00:41:50;;;;;;;3.17;1.48;;;22.20;37.40;;;;;;5043705;28;20017;-59
2023/05/27 00:44:20;;;;;;;3.47;1.17;;;22.20;37.40;;;;;;5059134;28;20479;-62
2023/05/27 00:46:48;;;;;;;3.50;1.60;;;22.20;37.40;;;;;;5060894;28;20039;-61
2023/05/27 00:49:16;;;;;;;2.88;1.30;;;22.20;37.30;;;;;;5061229;28;20111;-60
2023/05/27 00:51:41;;;;;;;4.55;1.70;;;22.20;37.30;;;;;;5037347;28;20084;-60
2023/05/27 00:54:08;;;;;;;3.08;1.70;;;22.20;37.30;;;;;;5031583;28;20360;-61
2023/05/27 00:56:35;;;;;;;3.83;1.70;;;22.20;37.30;;;;;;5051504;28;20024;-61
2023/05/27 00:59:01;;;;;;;3.10;1.48;;;22.20;37.20;;;;;;5052731;28;20056;-60
2023/05/27 01:01:28;;;;;;;3.53;1.45;;;22.20;37.20;;;;;;5030845;28;20029;-57
2023/05/27 01:03:55;;;;;;;5.13;1.73;;;22.20;37.20;;;;;;5054617;28;20037;-62
2023/05/27 01:07:07;;;;;;;3.72;1.50;;;22.20;37.20;;;;;;5055659;28;20053;-62
2023/05/27 01:09:39;;;;;;;3.03;1.30;;;22.20;37.20;;;;;;5050423;28;20098;-61
2023/05/27 01:12:21;;;;;;;3.50;1.70;;;22.20;37.10;;;;;;5036440;28;20491;-61
2023/05/27 01:14:51;;;;;;;5.43;1.60;;;22.20;37.10;;;;;;5058798;28;20306;-60
2023/05/27 01:17:19;;;;;;;3.67;1.30;;;22.20;37.10;;;;;;5061174;28;20451;-57
2023/05/27 01:19:46;;;;;;;2.63;1.20;;;22.20;37.10;;;;;;5061271;28;20056;-60
2023/05/27 01:22:13;;;;;;;3.33;1.40;;;22.20;37.10;;;;;;5041256;28;20024;-64
2023/05/27 01:24:42;;;;;;;4.55;1.60;;;22.20;37.10;;;;;;5059565;28;20025;-60
2023/05/27 01:27:12;;;;;;;3.70;1.60;;;22.20;37.10;;;;;;5041411;28;20506;-60
2023/05/27 01:29:40;;;;;;;4.68;1.30;;;22.20;37.10;;;;;;5042549;28;20095;-62
2023/05/27 01:32:13;;;;;;;3.03;1.38;;;22.20;37.10;;;;;;5041457;28;20068;-60
2023/05/27 01:35:01;;;;;;;3.33;1.40;;;22.20;37.10;;;;;;5040767;28;20436;-62
2023/05/27 01:37:33;;;;;;;2.25;1.10;;;22.20;37.10;;;;;;5043772;28;20027;-60
2023/05/27 01:40:00;;;;;;;3.92;1.70;;;22.20;37.10;;;;;;5041527;28;20167;-60
2023/05/27 01:42:29;;;;;;;2.97;1.40;;;22.20;37.10;;;;;;5040902;28;20073;-60
2023/05/27 01:44:56;;;;;;;5.63;1.55;;;22.20;37.10;;;;;;5042761;28;20190;-59
2023/05/27 01:47:22;;;;;;;3.38;1.30;;;22.20;37.10;;;;;;5039736;28;20036;-60
2023/05/27 01:49:48;;;;;;;3.75;1.60;;;22.20;37.10;;;;;;5051329;28;20017;-59
2023/05/27 01:52:14;;;;;;;3.30;1.48;;;22.20;37.10;;;;;;5032823;28;20341;-60
2023/05/27 01:54:40;;;;;;;4.38;1.50;;;22.20;37.20;;;;;;5017153;28;20135;-60
2023/05/27 01:57:07;;;;;;;2.63;1.17;;;22.20;37.20;;;;;;5054183;28;20036;-59
2023/05/27 01:59:33;;;;;;;3.63;1.38;;;22.20;37.20;;;;;;5030526;28;20078;-62
2023/05/27 02:01:59;;;;;;;3.15;1.30;;;22.20;37.20;;;;;;5041675;28;20044;-58
2023/05/27 02:04:25;;;;;;;2.60;1.25;;;22.20;37.20;;;;;;5040802;28;20040;-59
2023/05/27 02:06:51;;;;;;;4.38;1.60;;;22.20;37.20;;;;;;5060107;28;20055;-60
2023/05/27 02:09:17;;;;;;;2.90;1.42;;;22.20;37.20;;;;;;5043940;28;20020;-60
2023/05/27 02:11:43;;;;;;;4.32;1.45;;;22.20;37.20;;;;;;5059062;28;20077;-60
2023/05/27 02:14:09;;;;;;;3.15;1.45;;;22.20;37.20;;;;;;5041557;28;20025;-60
2023/05/27 02:16:36;;;;;;;3.20;1.20;;;22.20;37.20;;;;;;5048156;28;20033;-61
2023/05/27 02:19:02;;;;;;;3.65;1.50;;;22.20;37.20;;;;;;5035219;28;20052;-61
2023/05/27 02:21:28;;;;;;;4.10;1.80;;;22.20;37.20;;;;;;5050230;28;20420;-58
2023/05/27 02:23:54;;;;;;;3.20;1.40;;;22.20;37.20;;;;;;5053373;28;20185;-61
2023/05/27 02:26:21;;;;;;;3.40;1.48;;;22.20;37.80;;;;;;5051435;28;20030;-60
2023/05/27 02:28:47;;;;;;;3.08;1.17;;;22.20;37.20;;;;;;5043412;28;20025;-60
2023/05/27 02:31:13;;;;;;;3.78;1.52;;;22.20;37.20;;;;;;5032460;28;20072;-57
2023/05/27 02:33:39;;;;;;;3.88;1.55;;;22.20;37.20;;;;;;5052477;28;20021;-61
2023/05/27 02:36:06;;;;;;;3.67;1.50;;;22.20;37.20;;;;;;5042915;28;20390;-62
2023/05/27 02:38:32;;;;;;;4.57;1.77;;;22.20;37.20;;;;;;5039295;28;20063;-61
2023/05/27 02:40:58;;;;;;;2.60;1.30;;;22.20;37.20;;;;;;5044976;28;20331;-60
2023/05/27 02:43:25;;;;;;;4.40;1.63;;;22.20;37.80;;;;;;5039495;28;20033;-58
2023/05/27 02:45:51;;;;;;;6.25;1.70;;;22.20;37.20;;;;;;5039109;28;20119;-61
2023/05/27 02:48:17;;;;;;;3.22;1.50;;;22.20;37.20;;;;;;5039394;28;20044;-59
2023/05/27 02:50:43;;;;;;;4.18;1.67;;;22.20;37.80;;;;;;5041351;28;20104;-58
2023/05/27 02:53:10;;;;;;;3.80;1.45;;;22.20;37.20;;;;;;5041404;28;20384;-61
2023/05/27 02:55:36;;;;;;;3.25;1.40;;;22.10;37.10;;;;;;5058117;28;20020;-58
2023/05/27 02:58:04;;;;;;;3.67;1.73;;;22.20;37.10;;;;;;5060286;28;20405;-60
2023/05/27 03:00:31;;;;;;;3.35;1.63;;;22.20;37.10;;;;;;5039779;28;20097;-61
2023/05/27 03:02:57;;;;;;;3.97;1.65;;;22.20;37.10;;;;;;5040902;28;20048;-57
2023/05/27 03:05:23;;;;;;;2.92;1.50;;;22.20;37.10;;;;;;5040855;28;20046;-60
2023/05/27 03:07:50;;;;;;;3.75;1.65;;;22.10;37.10;;;;;;5027743;28;20044;-61
2023/05/27 03:10:16;;;;;;;3.33;1.23;;;22.20;37.10;;;;;;5049723;28;20017;-60
2023/05/27 03:12:41;;;;;;;4.20;1.60;;;22.20;37.10;;;;;;5030003;28;20617;-61
2023/05/27 03:15:07;;;;;;;3.22;1.25;;;22.20;37.10;;;;;;5033931;28;20021;-62
2023/05/27 03:17:37;;;;;;;3.45;1.30;;;22.20;37.10;;;;;;5030064;28;20033;-60
2023/05/27 03:20:04;;;;;;;4.13;1.50;;;22.10;37.10;;;;;;5033783;28;20036;-61
2023/05/27 03:22:31;;;;;;;3.05;1.40;;;22.20;37.20;;;;;;5031861;28;20115;-60
2023/05/27 03:24:57;;;;;;;3.15;1.45;;;22.20;37.10;;;;;;5054097;28;20401;-59
2023/05/27 03:27:23;;;;;;;2.97;1.50;;;22.10;37.10;;;;;;5038202;28;20060;-59
2023/05/27 03:29:50;;;;;;;3.22;1.33;;;22.10;37.10;;;;;;5040329;28;20033;-60
2023/05/27 03:32:16;;;;;;;4.93;1.50;;;22.10;37.10;;;;;;5029977;28;20159;-61
2023/05/27 03:34:44;;;;;;;4.25;1.42;;;22.10;37.10;;;;;;5036628;28;20130;-62
2023/05/27 03:37:10;;;;;;;4.53;1.33;;;22.10;37.10;;;;;;5031851;28;20025;-60
2023/05/27 03:39:48;;;;;;;3.17;1.40;;;22.10;37.10;;;;;;5034159;28;20108;-60
2023/05/27 03:42:14;;;;;;;3.05;1.30;;;22.10;37.10;;;;;;5032944;28;20398;-61
2023/05/27 03:44:42;;;;;;;3.92;1.73;;;22.10;37.10;;;;;;5036410;28;20049;-60
2023/05/27 03:47:08;;;;;;;5.60;1.38;;;22.10;37.10;;;;;;5049323;28;20094;-61
2023/05/27 03:49:34;;;;;;;3.20;1.23;;;22.10;37.10;;;;;;5028876;28;20356;-59
2023/05/27 03:52:02;;;;;;;3.92;1.17;;;22.10;37.10;;;;;;5032008;28;20018;-62
2023/05/27 03:54:29;;;;;;;3.67;1.50;;;22.10;37.10;;;;;;5030407;28;20444;-59
2023/05/27 03:56:55;;;;;;;2.72;1.27;;;22.10;37.70;;;;;;5029113;28;20029;-63
2023/05/27 03:59:21;;;;;;;2.53;1.20;;;22.10;37.10;;;;;;5032092;28;20606;-58
2023/05/27 04:01:48;;;;;;;4.75;1.70;;;22.10;37.10;;;;;;5042391;28;20017;-59
2023/05/27 04:04:14;;;;;;;3.58;1.75;;;22.10;37.70;;;;;;5059157;28;20154;-60
2023/05/27 04:06:41;;;;;;;3.58;1.33;;;22.10;37.10;;;;;;5062428;28;20068;-59
2023/05/27 04:09:08;;;;;;;4.13;1.38;;;22.10;37.10;;;;;;5062597;28;20049;-59
2023/05/27 04:11:34;;;;;;;3.00;1.30;;;22.10;37.10;;;;;;5060541;28;20025;-58
2023/05/27 04:14:00;;;;;;;3.15;1.42;;;22.10;37.10;;;;;;5044376;28;20034;-59
2023/05/27 04:16:30;;;;;;;4.05;1.40;;;22.10;37.10;;;;;;5061164;28;20120;-60
2023/05/27 04:18:58;;;;;;;4.97;1.45;;;22.10;37.10;;;;;;5060907;28;20055;-58
2023/05/27 04:21:25;;;;;;;4.70;1.33;;;22.10;37.10;;;;;;5026762;28;20123;-60
2023/05/27 04:23:53;;;;;;;2.40;1.00;;;22.10;37.10;;;;;;5042789;28;20388;-59
2023/05/27 04:26:19;;;;;;;4.20;1.42;;;22.10;37.00;;;;;;5045304;28;20412;-59
2023/05/27 04:28:50;;;;;;;2.55;0.95;;;22.10;37.10;;;;;;5045353;28;20332;-61
2023/05/27 04:31:16;;;;;;;3.33;1.27;;;22.10;37.00;;;;;;5043641;28;20028;-61
2023/05/27 04:33:46;;;;;;;3.08;1.30;;;22.20;37.10;;;;;;5044004;28;20025;-61
2023/05/27 04:36:16;;;;;;;4.68;1.55;;;22.10;37.00;;;;;;5041203;28;20044;-60
2023/05/27 04:38:59;;;;;;;2.40;1.40;;;22.20;37.20;;;;;;5041711;28;20093;-61
2023/05/27 04:41:27;;;;;;;3.35;1.42;;;22.20;37.20;;;;;;5043039;28;20028;-60
2023/05/27 04:44:06;;;;;;;3.10;1.20;;;22.20;37.10;;;;;;5026402;28;20106;-62
2023/05/27 04:46:38;;;;;;;4.03;1.42;;;22.20;37.00;;;;;;5041741;28;21734;-64
2023/05/27 04:49:05;;;;;;;3.38;1.45;;;22.20;37.00;;;;;;5041386;28;20093;-62
2023/05/27 04:51:32;;;;;;;3.85;1.58;;;22.20;37.10;;;;;;5042585;28;20025;-60
2023/05/27 04:53:58;;;;;;;4.40;1.52;;;22.20;37.00;;;;;;5060514;28;20121;-60
2023/05/27 04:56:26;;;;;;;5.50;1.58;;;22.20;37.00;;;;;;5043935;28;20040;-59
2023/05/27 04:58:54;;;;;;;3.25;1.30;;;22.20;37.00;;;;;;5044966;28;20479;-61
2023/05/27 05:01:25;;;;;;;4.68;1.70;;;22.20;37.00;;;;;;5043745;28;20013;-60
2023/05/27 05:04:12;;;;;;;3.10;1.42;;;22.20;37.00;;;;;;5042950;28;20135;-62
2023/05/27 05:06:55;;;;;;;5.68;1.92;;;22.20;37.00;;;;;;5034133;28;20045;-61
2023/05/27 05:09:22;;;;;;;4.18;1.55;;;22.20;37.00;;;;;;5042440;28;20115;-60
2023/05/27 05:11:49;;;;;;;3.55;1.45;;;22.20;37.00;;;;;;5039125;28;20033;-61
2023/05/27 05:14:15;;;;;;;3.30;1.30;;;22.20;37.00;;;;;;5032788;28;20215;-58
2023/05/27 05:16:41;;;;;;;3.47;1.40;;;22.30;37.10;;;;;;5017107;28;20163;-59
2023/05/27 05:19:08;;;;;;;1.95;1.05;;;22.20;37.10;;;;;;5037167;28;20049;-61
2023/05/27 05:21:36;;;;;;;3.92;1.60;;;22.20;37.20;;;;;;5033094;28;20025;-59
2023/05/27 05:24:04;;;;;;;3.72;1.45;;;22.30;37.20;;;;;;5035935;28;20024;-60
2023/05/27 05:26:30;;;;;;;3.35;1.42;;;22.30;37.30;;;;;;5038811;28;20150;-58
2023/05/27 05:28:59;;;;;;;3.45;1.40;;;22.30;37.30;;;;;;5045582;28;20016;-62
2023/05/27 05:31:25;;;;;;;4.00;1.20;;;22.20;37.30;;;;;;5039182;28;20025;-59
2023/05/27 05:33:51;;;;;;;3.53;1.50;;;22.30;37.30;;;;;;5030365;28;20135;-58
2023/05/27 05:36:20;;;;;;;2.97;1.40;;;22.20;37.30;;;;;;5037773;28;20436;-59
2023/05/27 05:38:57;;;;;;;3.20;1.50;;;22.20;37.40;;;;;;5038856;28;20016;-59
2023/05/27 05:41:23;;;;;;;5.57;1.73;;;22.20;37.40;;;;;;5029852;28;20551;-62
2023/05/27 05:43:49;;;;;;;2.83;1.30;;;22.20;37.50;;;;;;5040698;28;20151;-59
2023/05/27 05:46:15;;;;;;;3.60;1.30;;;22.20;37.50;;;;;;5044491;28;20439;-60
2023/05/27 05:48:42;;;;;;;2.92;1.30;;;22.20;37.50;;;;;;5037210;28;20021;-58
2023/05/27 05:51:11;;;;;;;3.65;1.50;;;22.20;37.60;;;;;;5035212;28;20137;-62
2023/05/27 05:53:39;;;;;;;4.18;1.50;;;22.20;37.60;;;;;;5035343;28;20154;-60
2023/05/27 05:56:05;;;;;;;3.72;1.42;;;22.20;37.60;;;;;;5054080;28;20084;-60
2023/05/27 05:58:31;;;;;;;3.97;1.63;;;22.20;37.60;;;;;;5035393;28;20036;-62
2023/05/27 06:00:58;;;;;;;3.95;1.42;;;22.20;37.70;;;;;;5036293;28;20029;-61
2023/05/27 06:03:30;;;;;;;3.65;1.50;;;22.20;37.70;;;;;;5036623;28;20021;-60
2023/05/27 06:05:58;;;;;;;4.38;1.50;;;22.20;37.90;;;;;;5033724;28;20041;-61
2023/05/27 06:08:24;;;;;;;3.20;1.50;;;22.20;37.90;;;;;;5033924;28;20051;-58
2023/05/27 06:10:59;;;;;;;3.83;1.40;;;22.20;37.90;;;;;;5034671;28;20021;-57
2023/05/27 06:13:26;;;;;;;3.22;1.15;;;22.20;38.00;;;;;;5031375;28;20080;-59
2023/05/27 06:15:57;;;;;;;2.40;1.20;;;22.20;38.00;;;;;;5030774;28;20029;-58
2023/05/27 06:18:23;;;;;;;4.00;1.45;;;22.20;38.10;;;;;;5033393;28;20075;-61
2023/05/27 06:20:49;;;;;;;2.90;1.30;;;22.20;38.10;;;;;;5030381;28;20119;-60
2023/05/27 06:23:15;;;;;;;4.13;1.83;;;22.20;38.10;;;;;;5032510;28;20065;-60
2023/05/27 06:25:58;;;;;;;3.60;1.60;;;22.20;38.10;;;;;;5056417;28;20040;-60
2023/05/27 06:28:27;;;;;;;3.40;1.17;;;22.20;38.10;;;;;;5036988;28;20307;-59
2023/05/27 06:30:53;;;;;;;3.40;1.60;;;22.20;38.10;;;;;;5031354;28;20098;-60
2023/05/27 06:33:19;;;;;;;5.30;1.92;;;22.20;38.10;;;;;;5038431;28;20194;-59
2023/05/27 06:35:46;;;;;;;3.97;1.50;;;22.20;38.20;;;;;;5039730;28;20442;-59
2023/05/27 06:38:12;;;;;;;4.35;1.60;;;22.20;38.20;;;;;;5033808;28;20116;-61
2023/05/27 06:40:39;;;;;;;2.83;1.33;;;22.20;38.20;;;;;;5035349;28;20029;-61
2023/05/27 06:43:06;;;;;;;4.35;1.75;;;22.20;38.20;;;;;;5038724;28;20116;-56
2023/05/27 06:45:45;;;;;;;4.13;1.60;;;22.20;38.30;;;;;;5038411;28;20036;-61
2023/05/27 06:48:32;;;;;;;3.55;1.30;;;22.20;38.30;;;;;;4997366;28;20041;-61
2023/05/27 06:50:59;;;;;;;3.20;1.60;;;22.20;38.30;;;;;;5038054;28;20032;-58
2023/05/27 06:53:25;;;;;;;3.83;1.38;;;22.20;38.30;;;;;;5032199;28;20029;-60
2023/05/27 06:55:58;;;;;;;6.28;1.52;;;22.20;38.40;;;;;;5037479;28;20017;-61
2023/05/27 06:58:45;;;;;;;3.33;1.40;;;22.30;38.50;;;;;;5017261;28;20125;-60
2023/05/27 07:01:14;;;;;;;3.20;1.40;;;22.20;38.60;;;;;;5037043;28;20041;-59
2023/05/27 07:03:46;;;;;;;4.47;1.70;;;22.20;38.60;;;;;;5031614;28;20062;-58
2023/05/27 07:06:28;;;;;;;3.30;1.52;;;22.20;38.60;;;;;;5033180;28;20048;-61
2023/05/27 07:09:05;;;;;;;3.35;1.25;;;22.30;38.70;;;;;;5027289;28;20033;-61
2023/05/27 07:11:40;;;;;;;3.47;1.40;;;22.30;38.70;;;;;;5024303;28;20032;-58
2023/05/27 07:14:15;;;;;;;4.20;1.40;;;22.30;38.80;;;;;;5026156;28;20041;-57
2023/05/27 07:16:48;;;;;;;3.85;1.52;;;22.30;38.80;;;;;;5031045;28;20171;-60
2023/05/27 07:19:24;;;;;;;4.35;1.52;;;22.30;38.80;;;;;;5041843;28;20028;-59
2023/05/27 07:21:57;;;;;;;5.45;1.63;;;22.30;38.80;;;;;;5048870;28;20111;-60
2023/05/27 07:24:26;;;;;;;4.80;1.50;;;22.30;38.80;;;;;;5029446;28;20052;-61
2023/05/27 07:26:55;;;;;;;4.47;1.80;;;22.30;38.80;;;;;;5028913;28;20038;-60
2023/05/27 07:29:31;;;;;;;3.42;1.48;;;22.30;38.90;;;;;;5038499;28;20413;-61
2023/05/27 07:32:25;;;;;;;3.78;1.50;;;22.30;38.80;;;;;;5046508;28;20059;-59
2023/05/27 07:34:52;;;;;;;3.85;1.48;;;22.30;38.80;;;;;;5033561;28;20029;-62
2023/05/27 07:37:19;;;;;;;5.05;1.70;;;22.30;38.80;;;;;;5034841;28;20021;-59
2023/05/27 07:39:45;;;;;;;3.78;1.50;;;22.30;38.80;;;;;;5050626;28;20021;-61
2023/05/27 07:42:16;;;;;;;7.43;2.03;;;22.30;38.70;;;;;;5028764;28;20057;-61
2023/05/27 07:44:43;;;;;;;4.15;1.52;;;22.30;38.70;;;;;;5043353;28;20060;-59
2023/05/27 07:47:10;;;;;;;3.42;1.50;;;22.30;38.60;;;;;;5047706;28;20033;-60
2023/05/27 07:49:38;;;;;;;2.92;1.40;;;22.30;38.60;;;;;;5048095;28;20073;-60
2023/05/27 07:52:24;;;;;;;3.35;1.52;;;22.40;38.90;;;;;;5050724;28;20047;-61
2023/05/27 07:54:57;;;;;;;5.03;2.05;;;22.30;38.60;;;;;;5048808;28;20116;-60
2023/05/27 07:57:34;;;;;;;3.50;1.60;;;22.30;38.60;;;;;;5028909;28;20117;-60
2023/05/27 08:00:03;;;;;;;5.68;1.67;;;22.30;38.70;;;;;;5044712;28;20069;-61
2023/05/27 08:02:49;;;;;;;4.45;1.60;;;22.30;38.90;;;;;;5046369;28;20354;-61
2023/05/27 08:05:15;;;;;;;3.72;1.52;;;22.30;38.90;;;;;;5030088;28;20135;-61
2023/05/27 08:07:59;;;;;;;6.68;1.75;;;22.40;38.90;;;;;;5018761;28;20053;-61
2023/05/27 08:10:44;;;;;;;4.00;1.63;;;22.30;38.80;;;;;;5039051;28;20067;-62
2023/05/27 08:13:27;;;;;;;4.30;1.70;;;22.40;38.80;;;;;;5043156;28;20094;-59
2023/05/27 08:16:02;;;;;;;4.18;1.58;;;22.40;38.80;;;;;;5036494;28;20077;-58
2023/05/27 08:18:46;;;;;;;2.97;1.40;;;22.40;38.80;;;;;;5033599;28;20021;-61
2023/05/27 08:21:17;;;;;;;4.47;1.70;;;22.40;38.70;;;;;;5030341;28;20136;-61
2023/05/27 08:24:02;;;;;;;4.25;1.85;;;22.40;38.70;;;;;;5036676;28;20091;-60
2023/05/27 08:26:37;;;;;;;4.45;1.70;;;22.40;38.70;;;;;;5032606;28;20103;-63
2023/05/27 08:29:16;;;;;;;5.88;1.77;;;22.40;38.70;;;;;;5030680;28;20128;-60
2023/05/27 08:32:09;;;;;;;5.72;1.90;;;22.30;38.70;;;;;;5023424;28;20029;-59
2023/05/27 08:34:35;;;;;;;5.30;1.70;;;22.40;38.70;;;;;;5037899;28;20448;-60
2023/05/27 08:37:03;;;;;;;3.95;1.60;;;22.40;38.70;;;;;;5032712;28;20037;-62
2023/05/27 08:39:32;;;;;;;4.50;1.85;;;22.40;38.70;;;;;;5055314;28;20460;-63
2023/05/27 08:42:05;;;;;;;3.92;1.70;;;22.40;38.70;;;;;;5031317;28;20087;-61
2023/05/27 08:44:32;;;;;;;3.88;1.60;;;22.40;38.70;;;;;;5026658;28;20182;-60
2023/05/27 08:47:04;;;;;;;4.82;1.80;;;22.40;38.70;;;;;;5038830;28;20096;-62
2023/05/27 08:49:31;;;;;;;5.00;1.77;;;22.40;38.70;;;;;;5031918;28;20440;-61
2023/05/27 08:52:02;;;;;;;5.40;1.80;;;22.40;38.70;;;;;;5039971;28;20100;-60
2023/05/27 08:54:30;;;;;;;4.65;1.70;;;22.40;38.60;;;;;;5040550;28;20017;-62
2023/05/27 08:57:00;;;;;;;5.53;2.13;;;22.50;38.70;;;;;;5040679;28;20494;-62
2023/05/27 08:59:27;;;;;;;3.45;1.83;;;22.40;38.60;;;;;;5040491;28;20035;-58
2023/05/27 09:01:56;;;;;;;3.80;1.67;;;22.50;38.70;;;;;;5037621;28;20033;-60
2023/05/27 09:04:22;;;;;;;6.70;2.10;;;22.50;38.70;;;;;;5040262;28;20026;-60
2023/05/27 09:06:48;;;;;;;3.33;1.65;;;22.50;38.70;;;;;;5040115;28;20040;-62
2023/05/27 09:09:14;;;;;;;4.50;2.00;;;22.50;38.70;;;;;;5039814;28;20386;-60
2023/05/27 09:11:42;;;;;;;4.00;1.60;;;22.50;38.60;;;;;;5039749;28;20120;-61
2023/05/27 09:14:08;;;;;;;3.47;1.63;;;22.50;38.60;;;;;;5041360;28;20025;-61
2023/05/27 09:16:34;;;;;;;6.05;2.25;;;22.50;38.60;;;;;;5040254;28;20094;-62
2023/05/27 09:19:01;;;;;;;3.83;1.60;;;22.50;38.60;;;;;;5038337;28;20025;-61
2023/05/27 09:21:27;;;;;;;4.00;1.92;;;22.50;38.70;;;;;;5040863;28;20337;-61
2023/05/27 09:23:59;;;;;;;7.10;2.25;;;22.50;38.60;;;;;;5039262;28;20447;-62
2023/05/27 09:26:27;;;;;;;6.88;2.03;;;22.50;38.70;;;;;;5042056;28;20052;-60
2023/05/27 09:28:53;;;;;;;3.83;1.70;;;22.50;38.80;;;;;;5038695;28;20106;-61
2023/05/27 09:31:22;;;;;;;4.07;1.90;;;22.50;38.80;;;;;;5039296;28;20074;-59
2023/05/27 09:33:49;;;;;;;7.10;2.20;;;22.60;39.60;;;;;;5040157;28;20096;-63
2023/05/27 09:36:21;;;;;;;5.22;1.75;;;22.50;38.80;;;;;;5037905;28;20174;-63
2023/05/27 09:38:48;;;;;;;5.25;1.85;;;22.60;38.90;;;;;;5034323;28;20033;-62
2023/05/27 09:41:14;;;;;;;4.07;1.67;;;22.60;38.90;;;;;;5018966;28;20029;-61
2023/05/27 09:43:40;;;;;;;4.65;1.98;;;22.50;38.80;;;;;;5034804;28;20025;-61
2023/05/27 09:46:13;;;;;;;3.92;2.00;;;22.60;38.90;;;;;;5051218;28;20116;-61
2023/05/27 09:48:40;;;;;;;4.53;2.13;;;22.60;39.00;;;;;;5052884;28;20033;-60
2023/05/27 09:51:06;;;;;;;2.95;1.48;;;22.60;38.90;;;;;;5049646;28;20091;-62
2023/05/27 09:53:35;;;;;;;4.57;1.67;;;22.60;38.90;;;;;;5050333;28;20036;-61
2023/05/27 09:56:01;;;;;;;3.33;1.67;;;22.60;38.90;;;;;;5049207;28;20020;-60
2023/05/27 09:58:27;;;;;;;3.95;1.80;;;22.60;38.90;;;;;;5048808;28;20032;-61
2023/05/27 10:00:55;;;;;;;5.97;2.03;;;22.60;38.80;;;;;;5048633;28;20123;-62
2023/05/27 10:03:22;;;;;;;6.00;2.13;;;22.60;38.80;;;;;;5057585;28;20028;-62
2023/05/27 10:05:50;;;;;;;5.20;1.83;;;22.60;38.70;;;;;;5051964;28;20029;-63
2023/05/27 10:08:17;;;;;;;4.75;2.03;;;22.60;38.60;;;;;;5054289;28;20134;-62
2023/05/27 10:10:45;;;;;;;4.35;1.75;;;22.60;38.60;;;;;;5049345;28;20118;-60
2023/05/27 10:13:13;;;;;;;4.18;1.85;;;22.70;38.70;;;;;;5052504;28;20348;-61
2023/05/27 10:15:38;;;;;;;6.65;2.22;;;22.70;38.70;;;;;;5054580;28;20025;-60
2023/05/27 10:18:06;;;;;;;4.63;1.80;;;22.70;38.70;;;;;;5056088;28;20111;-59
2023/05/27 10:20:37;;;;;;;5.20;2.10;;;22.70;38.70;;;;;;5053386;28;20033;-58
2023/05/27 10:23:11;;;;;;;4.65;2.05;;;22.70;38.70;;;;;;5055105;28;20292;-60
2023/05/27 10:25:39;;;;;;;4.95;1.85;;;22.70;38.80;;;;;;5047436;28;20056;-60
2023/05/27 10:28:05;;;;;;;4.45;1.90;;;22.70;38.90;;;;;;5047628;28;20107;-60
2023/05/27 10:30:43;;;;;;;4.40;1.83;;;22.70;39.00;;;;;;5049488;28;20021;-61
2023/05/27 10:33:09;;;;;;;4.32;1.90;;;22.70;39.00;;;;;;5032850;28;20033;-61
2023/05/27 10:35:40;;;;;;;4.95;1.65;;;22.80;39.10;;;;;;5037008;28;20101;-62
2023/05/27 10:38:16;;;;;;;5.15;2.17;;;22.80;39.10;;;;;;5048972;28;20077;-62
2023/05/27 10:40:46;;;;;;;5.00;2.10;;;22.80;39.10;;;;;;5047121;28;20413;-57
2023/05/27 10:43:16;;;;;;;4.18;1.50;;;22.80;39.10;;;;;;5034130;28;20606;-60
2023/05/27 10:45:42;;;;;;;5.03;1.83;;;22.80;39.10;;;;;;5050138;28;20120;-63
2023/05/27 10:48:27;;;;;;;4.82;1.90;;;22.80;39.10;;;;;;5035037;28;20210;-62
2023/05/27 10:50:57;;;;;;;4.82;2.03;;;22.80;39.10;;;;;;5053732;28;20098;-58
2023/05/27 10:53:26;;;;;;;4.90;2.30;;;22.80;39.10;;;;;;5055459;28;20468;-61
2023/05/27 10:55:52;;;;;;;4.60;1.98;;;22.90;39.10;;;;;;5055294;28;20154;-59
2023/05/27 10:58:19;;;;;;;5.07;1.73;;;22.90;39.00;;;;;;5052354;28;20111;-60
2023/05/27 11:00:50;;;;;;;5.80;2.28;;;22.90;39.00;;;;;;5040520;28;20077;-59
2023/05/27 11:03:23;;;;;;;5.15;1.80;;;22.90;38.90;;;;;;5053642;28;20025;-60
2023/05/27 11:06:02;;;;;;;3.92;2.03;;;22.90;38.70;;;;;;5040277;28;20035;-59
2023/05/27 11:08:37;;;;;;;5.03;1.80;;;22.90;38.60;;;;;;5054242;28;20075;-61
2023/05/27 11:11:08;;;;;;;5.30;1.90;;;22.90;38.50;;;;;;5047452;28;20170;-61
2023/05/27 11:13:43;;;;;;;4.68;2.13;;;22.90;38.50;;;;;;5054289;28;20128;-60
2023/05/27 11:16:09;;;;;;;3.70;1.60;;;23.00;38.80;;;;;;5050086;28;20085;-62
2023/05/27 11:18:37;;;;;;;4.78;1.85;;;23.00;39.00;;;;;;5047831;28;20115;-60
2023/05/27 11:21:04;;;;;;;7.07;1.92;;;23.00;38.90;;;;;;5047269;28;20327;-59
2023/05/27 11:23:39;;;;;;;5.53;1.88;;;23.10;38.80;;;;;;5049277;28;20029;-60
2023/05/27 11:26:11;;;;;;;4.60;1.92;;;23.10;38.70;;;;;;5047579;28;20029;-60
2023/05/27 11:28:37;;;;;;;6.95;2.47;;;23.10;38.70;;;;;;5029040;28;20077;-61
2023/05/27 11:31:03;;;;;;;4.47;1.90;;;23.10;38.60;;;;;;5046424;28;20101;-60
2023/05/27 11:33:33;;;;;;;6.03;2.58;;;23.10;38.40;;;;;;5045384;28;20031;-61
2023/05/27 11:36:12;;;;;;;6.75;2.20;;;23.10;38.20;;;;;;5047258;28;20021;-61
2023/05/27 11:38:56;;;;;;;3.72;1.63;;;23.10;38.00;;;;;;5046423;28;20021;-60
2023/05/27 11:41:26;;;;;;;5.35;1.90;;;23.10;37.90;;;;;;5047480;28;20128;-59
2023/05/27 11:44:05;;;;;;;5.57;2.00;;;23.10;37.90;;;;;;5044033;28;20460;-62
2023/05/27 11:46:39;;;;;;;4.45;1.90;;;23.10;37.80;;;;;;5051538;28;20037;-62
2023/05/27 11:49:10;;;;;;;3.28;1.70;;;23.10;37.70;;;;;;5049906;28;20451;-59
2023/05/27 11:51:46;;;;;;;5.07;2.10;;;23.10;37.60;;;;;;5054306;28;20103;-61
2023/05/27 11:54:23;;;;;;;5.00;1.85;;;23.20;37.50;;;;;;5051524;28;20038;-57
2023/05/27 11:56:50;;;;;;;5.43;2.03;;;23.10;37.40;;;;;;5039687;28;20502;-61
2023/05/27 11:59:16;;;;;;;5.00;2.17;;;23.10;37.50;;;;;;5052046;28;20093;-61
2023/05/27 12:01:43;;;;;;;4.50;2.13;;;23.10;37.60;;;;;;5051397;28;20021;-58
2023/05/27 12:04:09;;;;;;;5.43;2.00;;;23.20;37.70;;;;;;5053317;28;20116;-63
2023/05/27 12:06:37;;;;;;;4.60;2.08;;;23.20;37.60;;;;;;5046568;28;20041;-62
2023/05/27 12:09:08;;;;;;;5.65;2.30;;;23.20;37.60;;;;;;5053992;28;20033;-62
2023/05/27 12:11:34;;;;;;;6.72;2.03;;;23.20;37.60;;;;;;5050578;28;20120;-62
2023/05/27 12:14:00;;;;;;;6.45;2.15;;;23.20;37.50;;;;;;5053355;28;20029;-62
2023/05/27 12:16:27;;;;;;;6.75;2.58;;;23.20;37.50;;;;;;5048264;28;20133;-61
2023/05/27 12:18:53;;;;;;;5.13;2.30;;;23.20;37.60;;;;;;5030878;28;20033;-59
2023/05/27 12:21:20;;;;;;;4.60;2.25;;;23.20;37.70;;;;;;5049158;28;20414;-61
2023/05/27 12:23:46;;;;;;;4.65;2.25;;;23.30;37.70;;;;;;5052576;28;20021;-58
2023/05/27 12:26:14;;;;;;;3.22;1.60;;;23.30;37.70;;;;;;5054373;28;20088;-64
2023/05/27 12:28:40;;;;;;;3.60;1.90;;;23.30;37.60;;;;;;5053679;28;20048;-62
2023/05/27 12:31:08;;;;;;;8.07;2.55;;;23.30;37.60;;;;;;5056914;28;20040;-61
2023/05/27 12:33:35;;;;;;;4.50;2.22;;;23.40;37.60;;;;;;5055354;28;20031;-60
2023/05/27 12:36:05;;;;;;;4.78;1.73;;;23.30;37.50;;;;;;5055915;28;20044;-63
2023/05/27 12:38:31;;;;;;;3.88;1.90;;;23.40;37.50;;;;;;5057966;28;20037;-61
2023/05/27 12:40:57;;;;;;;3.88;2.05;;;23.40;37.50;;;;;;5060374;28;20111;-60
2023/05/27 12:43:24;;;;;;;4.35;2.47;;;23.40;37.40;;;;;;5056750;28;20171;-61
2023/05/27 12:45:51;;;;;;;5.82;2.97;;;23.40;37.40;;;;;;5054350;28;20487;-62
2023/05/27 12:48:18;;;;;;;4.88;2.38;;;23.40;37.30;;;;;;5051985;28;20048;-58
2023/05/27 12:50:44;;;;;;;6.40;2.60;;;23.40;37.30;;;;;;5055622;28;20033;-59
2023/05/27 12:53:11;;;;;;;3.90;2.30;;;23.50;37.20;;;;;;5060970;28;20308;-59
2023/05/27 12:55:46;;;;;;;5.65;2.70;;;23.40;37.00;;;;;;5047747;28;20053;-59
2023/05/27 12:58:12;;;;;;;5.10;2.60;;;23.40;36.90;;;;;;5061995;28;20097;-58